Terminal Aerodrome Forecast
Issued by NWS

Current Version | Previous Version | Text Only | Print | Product List | Glossary On
Versions: 1 2 3 4 5 6 7 8 9 10 11 12 13 14 15 16 17 18
000
FTUS46 KSEW 251120
TAFPAE
TAF
KPAE 251120Z 2512/2612 VRB04KT P6SM SCT050
     FM251800 21005KT P6SM BKN040
     FM260200 18008KT P6SM -RA SCT010 OVC020
     FM260600 16011KT P6SM -RA SCT010 OVC020=

USA.gov is the U.S. government's official web portal to all federal, state and local government web resources and services.